sensor_id;sensor_type;location;lat;lon;timestamp;P1;durP1;ratioP1;P2;durP2;ratioP2
19221;SDS011;9745;50.828;4.378;2024-03-22T00:00:18;40.30;;;24.30;;
19221;SDS011;9745;50.828;4.378;2024-03-22T00:02:44;39.57;;;25.73;;
19221;SDS011;9745;50.828;4.378;2024-03-22T00:05:10;42.17;;;24.50;;
19221;SDS011;9745;50.828;4.378;2024-03-22T00:07:36;43.30;;;24.80;;
19221;SDS011;9745;50.828;4.378;2024-03-22T00:10:03;40.63;;;24.43;;
19221;SDS011;9745;50.828;4.378;2024-03-22T00:12:29;37.37;;;22.07;;
19221;SDS011;9745;50.828;4.378;2024-03-22T00:14:55;39.47;;;23.57;;
19221;SDS011;9745;50.828;4.378;2024-03-22T00:17:21;36.37;;;22.00;;
19221;SDS011;9745;50.828;4.378;2024-03-22T00:19:47;36.83;;;23.23;;
19221;SDS011;9745;50.828;4.378;2024-03-22T00:22:13;35.47;;;23.60;;
19221;SDS011;9745;50.828;4.378;2024-03-22T00:24:40;38.77;;;22.93;;
19221;SDS011;9745;50.828;4.378;2024-03-22T00:27:06;39.53;;;22.80;;
19221;SDS011;9745;50.828;4.378;2024-03-22T00:29:32;37.27;;;21.77;;
19221;SDS011;9745;50.828;4.378;2024-03-22T00:31:58;35.47;;;21.77;;
19221;SDS011;9745;50.828;4.378;2024-03-22T00:34:25;34.67;;;21.50;;
19221;SDS011;9745;50.828;4.378;2024-03-22T00:36:51;37.00;;;23.27;;
19221;SDS011;9745;50.828;4.378;2024-03-22T00:39:17;36.47;;;22.93;;
19221;SDS011;9745;50.828;4.378;2024-03-22T00:41:43;38.37;;;21.37;;
19221;SDS011;9745;50.828;4.378;2024-03-22T00:44:09;42.27;;;23.07;;
19221;SDS011;9745;50.828;4.378;2024-03-22T00:46:35;34.97;;;22.27;;
19221;SDS011;9745;50.828;4.378;2024-03-22T00:49:01;35.13;;;20.60;;
19221;SDS011;9745;50.828;4.378;2024-03-22T00:51:28;32.67;;;20.70;;
19221;SDS011;9745;50.828;4.378;2024-03-22T00:53:54;35.43;;;21.50;;
19221;SDS011;9745;50.828;4.378;2024-03-22T00:56:20;32.03;;;19.87;;
19221;SDS011;9745;50.828;4.378;2024-03-22T00:58:46;32.97;;;20.57;;
19221;SDS011;9745;50.828;4.378;2024-03-22T01:01:12;37.73;;;22.43;;
19221;SDS011;9745;50.828;4.378;2024-03-22T01:03:38;35.80;;;21.80;;
19221;SDS011;9745;50.828;4.378;2024-03-22T01:06:05;34.60;;;21.20;;
19221;SDS011;9745;50.828;4.378;2024-03-22T01:08:31;34.47;;;20.40;;
19221;SDS011;9745;50.828;4.378;2024-03-22T01:10:57;31.67;;;20.63;;
19221;SDS011;9745;50.828;4.378;2024-03-22T01:13:23;33.17;;;20.93;;
19221;SDS011;9745;50.828;4.378;2024-03-22T01:15:48;40.70;;;21.33;;
19221;SDS011;9745;50.828;4.378;2024-03-22T01:18:15;37.10;;;21.03;;
19221;SDS011;9745;50.828;4.378;2024-03-22T01:20:41;37.67;;;22.50;;
19221;SDS011;9745;50.828;4.378;2024-03-22T01:23:07;41.93;;;23.83;;
19221;SDS011;9745;50.828;4.378;2024-03-22T01:25:33;32.30;;;21.83;;
19221;SDS011;9745;50.828;4.378;2024-03-22T01:27:59;38.67;;;22.63;;
19221;SDS011;9745;50.828;4.378;2024-03-22T01:30:25;41.70;;;23.40;;
19221;SDS011;9745;50.828;4.378;2024-03-22T01:32:55;45.03;;;24.07;;
19221;SDS011;9745;50.828;4.378;2024-03-22T01:35:21;35.40;;;22.43;;
19221;SDS011;9745;50.828;4.378;2024-03-22T01:37:47;43.63;;;23.80;;
19221;SDS011;9745;50.828;4.378;2024-03-22T01:40:13;42.73;;;25.03;;
19221;SDS011;9745;50.828;4.378;2024-03-22T01:42:39;39.40;;;23.90;;
19221;SDS011;9745;50.828;4.378;2024-03-22T01:45:06;42.67;;;23.80;;
19221;SDS011;9745;50.828;4.378;2024-03-22T01:47:32;38.67;;;23.70;;
19221;SDS011;9745;50.828;4.378;2024-03-22T01:49:58;41.70;;;22.43;;
19221;SDS011;9745;50.828;4.378;2024-03-22T01:52:24;40.03;;;23.90;;
19221;SDS011;9745;50.828;4.378;2024-03-22T01:54:50;38.53;;;23.73;;
19221;SDS011;9745;50.828;4.378;2024-03-22T01:57:16;37.13;;;22.53;;
19221;SDS011;9745;50.828;4.378;2024-03-22T01:59:42;40.43;;;23.70;;
19221;SDS011;9745;50.828;4.378;2024-03-22T02:02:08;42.30;;;23.20;;
19221;SDS011;9745;50.828;4.378;2024-03-22T02:04:36;36.47;;;22.83;;
19221;SDS011;9745;50.828;4.378;2024-03-22T02:07:02;42.97;;;24.77;;
19221;SDS011;9745;50.828;4.378;2024-03-22T02:09:28;40.80;;;23.80;;
19221;SDS011;9745;50.828;4.378;2024-03-22T02:11:54;47.77;;;24.83;;
19221;SDS011;9745;50.828;4.378;2024-03-22T02:14:20;45.30;;;25.20;;
19221;SDS011;9745;50.828;4.378;2024-03-22T02:16:46;42.80;;;22.73;;
19221;SDS011;9745;50.828;4.378;2024-03-22T02:19:12;43.10;;;23.77;;
19221;SDS011;9745;50.828;4.378;2024-03-22T02:21:38;44.07;;;24.70;;
19221;SDS011;9745;50.828;4.378;2024-03-22T02:24:04;41.57;;;24.33;;
19221;SDS011;9745;50.828;4.378;2024-03-22T02:26:30;41.07;;;22.63;;
19221;SDS011;9745;50.828;4.378;2024-03-22T02:28:56;45.57;;;26.13;;
19221;SDS011;9745;50.828;4.378;2024-03-22T02:31:22;40.43;;;23.17;;
19221;SDS011;9745;50.828;4.378;2024-03-22T02:33:50;35.63;;;21.23;;
19221;SDS011;9745;50.828;4.378;2024-03-22T02:36:16;35.50;;;21.93;;
19221;SDS011;9745;50.828;4.378;2024-03-22T02:38:42;39.30;;;21.77;;
19221;SDS011;9745;50.828;4.378;2024-03-22T02:41:08;38.60;;;23.20;;
19221;SDS011;9745;50.828;4.378;2024-03-22T02:43:34;36.23;;;21.40;;
19221;SDS011;9745;50.828;4.378;2024-03-22T02:46:00;36.70;;;22.63;;
19221;SDS011;9745;50.828;4.378;2024-03-22T02:48:26;41.63;;;23.23;;
19221;SDS011;9745;50.828;4.378;2024-03-22T02:50:55;34.93;;;21.27;;
19221;SDS011;9745;50.828;4.378;2024-03-22T02:53:21;35.30;;;21.83;;
19221;SDS011;9745;50.828;4.378;2024-03-22T02:55:47;39.53;;;22.57;;
19221;SDS011;9745;50.828;4.378;2024-03-22T02:58:13;33.47;;;20.57;;
19221;SDS011;9745;50.828;4.378;2024-03-22T03:00:39;34.63;;;20.57;;
19221;SDS011;9745;50.828;4.378;2024-03-22T03:03:06;39.70;;;19.73;;
19221;SDS011;9745;50.828;4.378;2024-03-22T03:05:32;35.63;;;20.20;;
19221;SDS011;9745;50.828;4.378;2024-03-22T03:07:58;31.63;;;19.30;;
19221;SDS011;9745;50.828;4.378;2024-03-22T03:10:24;33.33;;;19.30;;
19221;SDS011;9745;50.828;4.378;2024-03-22T03:12:50;33.03;;;20.07;;
19221;SDS011;9745;50.828;4.378;2024-03-22T03:15:16;34.57;;;19.37;;
19221;SDS011;9745;50.828;4.378;2024-03-22T03:17:43;33.80;;;18.93;;
19221;SDS011;9745;50.828;4.378;2024-03-22T03:20:09;28.73;;;19.27;;
19221;SDS011;9745;50.828;4.378;2024-03-22T03:22:38;28.77;;;18.80;;
19221;SDS011;9745;50.828;4.378;2024-03-22T03:25:04;33.77;;;18.57;;
19221;SDS011;9745;50.828;4.378;2024-03-22T03:27:30;30.37;;;17.53;;
19221;SDS011;9745;50.828;4.378;2024-03-22T03:29:56;31.87;;;18.83;;
19221;SDS011;9745;50.828;4.378;2024-03-22T03:32:22;28.50;;;17.60;;
19221;SDS011;9745;50.828;4.378;2024-03-22T03:34:49;34.07;;;18.10;;
19221;SDS011;9745;50.828;4.378;2024-03-22T03:37:15;26.53;;;15.70;;
19221;SDS011;9745;50.828;4.378;2024-03-22T03:39:41;27.00;;;16.43;;
19221;SDS011;9745;50.828;4.378;2024-03-22T03:42:07;26.77;;;16.47;;
19221;SDS011;9745;50.828;4.378;2024-03-22T03:44:33;29.20;;;17.17;;
19221;SDS011;9745;50.828;4.378;2024-03-22T03:47:02;27.13;;;17.40;;
19221;SDS011;9745;50.828;4.378;2024-03-22T03:49:28;30.17;;;16.73;;
19221;SDS011;9745;50.828;4.378;2024-03-22T03:51:54;26.87;;;16.53;;
19221;SDS011;9745;50.828;4.378;2024-03-22T03:54:20;27.83;;;16.20;;
19221;SDS011;9745;50.828;4.378;2024-03-22T03:56:46;25.93;;;16.10;;
19221;SDS011;9745;50.828;4.378;2024-03-22T03:59:12;23.73;;;14.60;;
19221;SDS011;9745;50.828;4.378;2024-03-22T04:01:38;27.97;;;16.63;;
19221;SDS011;9745;50.828;4.378;2024-03-22T04:04:04;28.00;;;15.23;;
19221;SDS011;9745;50.828;4.378;2024-03-22T04:06:30;25.70;;;15.23;;
19221;SDS011;9745;50.828;4.378;2024-03-22T04:08:56;26.53;;;15.50;;
19221;SDS011;9745;50.828;4.378;2024-03-22T04:11:23;26.17;;;16.10;;
19221;SDS011;9745;50.828;4.378;2024-03-22T04:13:49;29.33;;;16.40;;
19221;SDS011;9745;50.828;4.378;2024-03-22T04:16:15;26.10;;;15.67;;
19221;SDS011;9745;50.828;4.378;2024-03-22T04:18:41;26.47;;;15.47;;
19221;SDS011;9745;50.828;4.378;2024-03-22T04:21:07;23.43;;;14.50;;
19221;SDS011;9745;50.828;4.378;2024-03-22T04:23:33;24.90;;;14.73;;
19221;SDS011;9745;50.828;4.378;2024-03-22T04:25:59;25.67;;;14.87;;
19221;SDS011;9745;50.828;4.378;2024-03-22T04:28:26;23.40;;;15.47;;
19221;SDS011;9745;50.828;4.378;2024-03-22T04:30:56;25.47;;;14.80;;
19221;SDS011;9745;50.828;4.378;2024-03-22T04:33:22;21.70;;;13.87;;
19221;SDS011;9745;50.828;4.378;2024-03-22T04:35:48;23.37;;;13.87;;
19221;SDS011;9745;50.828;4.378;2024-03-22T04:38:14;31.30;;;14.77;;
19221;SDS011;9745;50.828;4.378;2024-03-22T04:40:40;24.10;;;13.47;;
19221;SDS011;9745;50.828;4.378;2024-03-22T04:43:06;20.37;;;12.63;;
19221;SDS011;9745;50.828;4.378;2024-03-22T04:45:32;21.83;;;13.40;;
19221;SDS011;9745;50.828;4.378;2024-03-22T04:47:58;26.47;;;13.90;;
19221;SDS011;9745;50.828;4.378;2024-03-22T04:50:24;24.93;;;13.87;;
19221;SDS011;9745;50.828;4.378;2024-03-22T04:52:50;26.00;;;13.27;;
19221;SDS011;9745;50.828;4.378;2024-03-22T04:55:16;23.60;;;13.13;;
19221;SDS011;9745;50.828;4.378;2024-03-22T04:57:42;23.07;;;14.43;;
19221;SDS011;9745;50.828;4.378;2024-03-22T05:00:09;26.23;;;14.17;;
19221;SDS011;9745;50.828;4.378;2024-03-22T05:02:35;21.43;;;13.07;;
19221;SDS011;9745;50.828;4.378;2024-03-22T05:05:01;21.23;;;13.33;;
19221;SDS011;9745;50.828;4.378;2024-03-22T05:07:27;24.03;;;14.13;;
19221;SDS011;9745;50.828;4.378;2024-03-22T05:09:53;23.27;;;13.73;;
19221;SDS011;9745;50.828;4.378;2024-03-22T05:12:19;24.70;;;13.77;;
19221;SDS011;9745;50.828;4.378;2024-03-22T05:14:45;23.63;;;14.07;;
19221;SDS011;9745;50.828;4.378;2024-03-22T05:17:11;23.77;;;13.90;;
19221;SDS011;9745;50.828;4.378;2024-03-22T05:19:37;21.87;;;12.93;;
19221;SDS011;9745;50.828;4.378;2024-03-22T05:22:03;22.30;;;13.93;;
19221;SDS011;9745;50.828;4.378;2024-03-22T05:24:29;28.30;;;13.50;;
19221;SDS011;9745;50.828;4.378;2024-03-22T05:26:55;22.80;;;14.07;;
19221;SDS011;9745;50.828;4.378;2024-03-22T05:29:21;22.60;;;13.17;;
19221;SDS011;9745;50.828;4.378;2024-03-22T05:31:48;22.90;;;14.03;;
19221;SDS011;9745;50.828;4.378;2024-03-22T05:34:15;23.83;;;13.87;;
19221;SDS011;9745;50.828;4.378;2024-03-22T05:36:41;22.73;;;13.63;;
19221;SDS011;9745;50.828;4.378;2024-03-22T05:39:07;24.50;;;14.73;;
19221;SDS011;9745;50.828;4.378;2024-03-22T05:41:35;23.20;;;14.63;;
19221;SDS011;9745;50.828;4.378;2024-03-22T05:44:01;24.83;;;14.33;;
19221;SDS011;9745;50.828;4.378;2024-03-22T05:46:28;22.03;;;13.57;;
19221;SDS011;9745;50.828;4.378;2024-03-22T05:48:54;23.00;;;13.87;;
19221;SDS011;9745;50.828;4.378;2024-03-22T05:51:20;24.23;;;13.73;;
19221;SDS011;9745;50.828;4.378;2024-03-22T05:53:46;20.73;;;12.17;;
19221;SDS011;9745;50.828;4.378;2024-03-22T05:56:12;20.30;;;12.53;;
19221;SDS011;9745;50.828;4.378;2024-03-22T05:58:38;19.57;;;12.43;;
19221;SDS011;9745;50.828;4.378;2024-03-22T06:01:04;20.20;;;12.23;;
19221;SDS011;9745;50.828;4.378;2024-03-22T06:03:30;19.07;;;11.57;;
19221;SDS011;9745;50.828;4.378;2024-03-22T06:05:56;19.23;;;11.57;;
19221;SDS011;9745;50.828;4.378;2024-03-22T06:08:25;20.40;;;12.67;;
19221;SDS011;9745;50.828;4.378;2024-03-22T06:10:52;20.70;;;12.77;;
19221;SDS011;9745;50.828;4.378;2024-03-22T06:13:18;18.90;;;12.07;;
19221;SDS011;9745;50.828;4.378;2024-03-22T06:15:44;18.97;;;11.80;;
19221;SDS011;9745;50.828;4.378;2024-03-22T06:18:10;19.83;;;12.37;;
19221;SDS011;9745;50.828;4.378;2024-03-22T06:20:36;21.30;;;12.23;;
19221;SDS011;9745;50.828;4.378;2024-03-22T06:23:02;22.70;;;12.70;;
19221;SDS011;9745;50.828;4.378;2024-03-22T06:25:28;23.77;;;13.30;;
19221;SDS011;9745;50.828;4.378;2024-03-22T06:27:54;22.17;;;12.90;;
19221;SDS011;9745;50.828;4.378;2024-03-22T06:30:21;24.07;;;14.20;;
19221;SDS011;9745;50.828;4.378;2024-03-22T06:32:47;22.40;;;13.23;;
19221;SDS011;9745;50.828;4.378;2024-03-22T06:35:13;25.73;;;14.40;;
19221;SDS011;9745;50.828;4.378;2024-03-22T06:37:40;25.57;;;14.33;;
19221;SDS011;9745;50.828;4.378;2024-03-22T06:40:07;26.20;;;13.07;;
19221;SDS011;9745;50.828;4.378;2024-03-22T06:42:33;21.40;;;12.63;;
19221;SDS011;9745;50.828;4.378;2024-03-22T06:44:59;25.07;;;12.33;;
19221;SDS011;9745;50.828;4.378;2024-03-22T06:47:25;24.03;;;12.80;;
19221;SDS011;9745;50.828;4.378;2024-03-22T06:49:51;21.73;;;12.77;;
19221;SDS011;9745;50.828;4.378;2024-03-22T06:52:18;21.50;;;12.57;;
19221;SDS011;9745;50.828;4.378;2024-03-22T06:54:45;22.47;;;12.37;;
19221;SDS011;9745;50.828;4.378;2024-03-22T06:57:11;25.80;;;12.77;;
19221;SDS011;9745;50.828;4.378;2024-03-22T06:59:37;22.97;;;11.93;;
19221;SDS011;9745;50.828;4.378;2024-03-22T07:02:03;25.50;;;12.77;;
19221;SDS011;9745;50.828;4.378;2024-03-22T07:04:29;30.67;;;14.00;;
19221;SDS011;9745;50.828;4.378;2024-03-22T07:06:55;214.87;;;33.50;;
19221;SDS011;9745;50.828;4.378;2024-03-22T07:09:21;91.53;;;19.80;;
19221;SDS011;9745;50.828;4.378;2024-03-22T07:11:47;35.27;;;14.10;;
19221;SDS011;9745;50.828;4.378;2024-03-22T07:14:13;31.17;;;12.40;;
19221;SDS011;9745;50.828;4.378;2024-03-22T07:16:39;29.57;;;11.80;;
19221;SDS011;9745;50.828;4.378;2024-03-22T07:19:05;28.57;;;13.30;;
19221;SDS011;9745;50.828;4.378;2024-03-22T07:21:31;26.93;;;12.90;;
19221;SDS011;9745;50.828;4.378;2024-03-22T07:23:57;24.70;;;11.50;;
19221;SDS011;9745;50.828;4.378;2024-03-22T07:26:23;25.77;;;11.30;;
19221;SDS011;9745;50.828;4.378;2024-03-22T07:28:49;29.60;;;12.20;;
19221;SDS011;9745;50.828;4.378;2024-03-22T07:31:15;28.77;;;13.23;;
19221;SDS011;9745;50.828;4.378;2024-03-22T07:33:41;23.20;;;12.27;;
19221;SDS011;9745;50.828;4.378;2024-03-22T07:36:07;24.10;;;11.47;;
19221;SDS011;9745;50.828;4.378;2024-03-22T07:38:33;22.50;;;11.83;;
19221;SDS011;9745;50.828;4.378;2024-03-22T07:40:59;26.40;;;13.43;;
19221;SDS011;9745;50.828;4.378;2024-03-22T07:43:25;34.73;;;13.20;;
19221;SDS011;9745;50.828;4.378;2024-03-22T07:45:52;21.70;;;11.53;;
19221;SDS011;9745;50.828;4.378;2024-03-22T07:48:18;24.20;;;11.80;;
19221;SDS011;9745;50.828;4.378;2024-03-22T07:50:44;21.77;;;11.77;;
19221;SDS011;9745;50.828;4.378;2024-03-22T07:53:10;20.87;;;11.40;;
19221;SDS011;9745;50.828;4.378;2024-03-22T07:55:38;23.67;;;11.93;;
19221;SDS011;9745;50.828;4.378;2024-03-22T07:58:04;22.10;;;12.33;;
19221;SDS011;9745;50.828;4.378;2024-03-22T08:00:31;22.23;;;10.63;;
19221;SDS011;9745;50.828;4.378;2024-03-22T08:02:57;18.93;;;11.83;;
19221;SDS011;9745;50.828;4.378;2024-03-22T08:05:23;20.53;;;11.07;;
19221;SDS011;9745;50.828;4.378;2024-03-22T08:07:49;25.70;;;11.30;;
19221;SDS011;9745;50.828;4.378;2024-03-22T08:10:15;21.60;;;11.37;;
19221;SDS011;9745;50.828;4.378;2024-03-22T08:12:41;38.43;;;13.70;;
19221;SDS011;9745;50.828;4.378;2024-03-22T08:15:07;23.20;;;10.63;;
19221;SDS011;9745;50.828;4.378;2024-03-22T08:17:33;20.13;;;10.37;;
19221;SDS011;9745;50.828;4.378;2024-03-22T08:19:59;17.97;;;10.63;;
19221;SDS011;9745;50.828;4.378;2024-03-22T08:22:25;19.27;;;11.07;;
19221;SDS011;9745;50.828;4.378;2024-03-22T08:24:51;24.50;;;12.60;;
19221;SDS011;9745;50.828;4.378;2024-03-22T08:27:17;23.90;;;12.97;;
19221;SDS011;9745;50.828;4.378;2024-03-22T08:29:43;25.27;;;13.97;;
19221;SDS011;9745;50.828;4.378;2024-03-22T08:32:09;24.30;;;13.60;;
19221;SDS011;9745;50.828;4.378;2024-03-22T08:34:35;32.07;;;15.27;;
19221;SDS011;9745;50.828;4.378;2024-03-22T08:37:01;21.93;;;13.97;;
19221;SDS011;9745;50.828;4.378;2024-03-22T08:39:28;22.13;;;13.67;;
19221;SDS011;9745;50.828;4.378;2024-03-22T08:41:55;24.80;;;13.30;;
19221;SDS011;9745;50.828;4.378;2024-03-22T08:44:21;20.50;;;13.50;;
19221;SDS011;9745;50.828;4.378;2024-03-22T08:46:47;22.13;;;12.67;;
19221;SDS011;9745;50.828;4.378;2024-03-22T08:49:14;18.10;;;12.47;;
19221;SDS011;9745;50.828;4.378;2024-03-22T08:51:40;19.93;;;12.03;;
19221;SDS011;9745;50.828;4.378;2024-03-22T08:54:06;17.97;;;11.80;;
19221;SDS011;9745;50.828;4.378;2024-03-22T08:56:33;20.87;;;12.00;;
19221;SDS011;9745;50.828;4.378;2024-03-22T08:58:59;18.87;;;12.03;;
19221;SDS011;9745;50.828;4.378;2024-03-22T09:01:25;19.27;;;11.60;;
19221;SDS011;9745;50.828;4.378;2024-03-22T09:03:51;18.10;;;11.27;;
19221;SDS011;9745;50.828;4.378;2024-03-22T09:06:18;18.30;;;11.73;;
19221;SDS011;9745;50.828;4.378;2024-03-22T09:08:44;18.67;;;11.30;;
19221;SDS011;9745;50.828;4.378;2024-03-22T09:11:11;17.67;;;11.07;;
19221;SDS011;9745;50.828;4.378;2024-03-22T09:13:37;27.60;;;11.80;;
19221;SDS011;9745;50.828;4.378;2024-03-22T09:16:03;21.47;;;11.93;;
19221;SDS011;9745;50.828;4.378;2024-03-22T09:18:29;17.30;;;10.90;;
19221;SDS011;9745;50.828;4.378;2024-03-22T09:20:56;16.73;;;10.90;;
19221;SDS011;9745;50.828;4.378;2024-03-22T09:23:22;17.07;;;11.33;;
19221;SDS011;9745;50.828;4.378;2024-03-22T09:25:48;23.57;;;11.97;;
19221;SDS011;9745;50.828;4.378;2024-03-22T09:28:14;17.77;;;10.67;;
19221;SDS011;9745;50.828;4.378;2024-03-22T09:30:41;21.63;;;11.13;;
19221;SDS011;9745;50.828;4.378;2024-03-22T09:33:08;16.83;;;10.67;;
19221;SDS011;9745;50.828;4.378;2024-03-22T09:35:34;16.67;;;11.17;;
19221;SDS011;9745;50.828;4.378;2024-03-22T09:38:00;16.60;;;10.23;;
19221;SDS011;9745;50.828;4.378;2024-03-22T09:40:27;20.47;;;11.07;;
19221;SDS011;9745;50.828;4.378;2024-03-22T09:42:53;16.87;;;11.03;;
19221;SDS011;9745;50.828;4.378;2024-03-22T09:45:19;18.67;;;10.77;;
19221;SDS011;9745;50.828;4.378;2024-03-22T09:47:46;20.23;;;11.53;;
19221;SDS011;9745;50.828;4.378;2024-03-22T09:50:13;20.97;;;12.37;;
19221;SDS011;9745;50.828;4.378;2024-03-22T09:52:40;17.40;;;11.47;;
19221;SDS011;9745;50.828;4.378;2024-03-22T09:55:07;19.93;;;11.67;;
19221;SDS011;9745;50.828;4.378;2024-03-22T09:57:37;22.43;;;12.60;;
19221;SDS011;9745;50.828;4.378;2024-03-22T10:00:07;22.37;;;11.83;;
19221;SDS011;9745;50.828;4.378;2024-03-22T10:02:33;23.07;;;12.30;;
19221;SDS011;9745;50.828;4.378;2024-03-22T10:05:00;19.23;;;11.97;;
19221;SDS011;9745;50.828;4.378;2024-03-22T10:07:27;18.83;;;11.33;;
19221;SDS011;9745;50.828;4.378;2024-03-22T10:09:57;20.07;;;11.97;;
19221;SDS011;9745;50.828;4.378;2024-03-22T10:12:23;21.93;;;12.17;;
19221;SDS011;9745;50.828;4.378;2024-03-22T10:14:50;18.80;;;12.20;;
19221;SDS011;9745;50.828;4.378;2024-03-22T10:17:16;21.67;;;12.00;;
19221;SDS011;9745;50.828;4.378;2024-03-22T10:19:42;19.97;;;12.37;;
19221;SDS011;9745;50.828;4.378;2024-03-22T10:22:09;18.93;;;12.23;;
19221;SDS011;9745;50.828;4.378;2024-03-22T10:24:35;18.80;;;11.87;;
19221;SDS011;9745;50.828;4.378;2024-03-22T10:27:01;14.83;;;10.07;;
19221;SDS011;9745;50.828;4.378;2024-03-22T10:29:27;19.93;;;11.50;;
19221;SDS011;9745;50.828;4.378;2024-03-22T10:31:54;17.60;;;10.97;;
19221;SDS011;9745;50.828;4.378;2024-03-22T10:34:20;16.50;;;10.23;;
19221;SDS011;9745;50.828;4.378;2024-03-22T10:36:46;16.10;;;9.90;;
19221;SDS011;9745;50.828;4.378;2024-03-22T10:39:13;18.77;;;11.67;;
19221;SDS011;9745;50.828;4.378;2024-03-22T10:41:41;24.47;;;13.57;;
19221;SDS011;9745;50.828;4.378;2024-03-22T10:44:07;23.13;;;14.77;;
19221;SDS011;9745;50.828;4.378;2024-03-22T10:46:33;17.77;;;12.43;;
19221;SDS011;9745;50.828;4.378;2024-03-22T10:48:59;17.40;;;11.17;;
19221;SDS011;9745;50.828;4.378;2024-03-22T10:51:30;14.67;;;11.30;;
19221;SDS011;9745;50.828;4.378;2024-03-22T10:53:58;16.87;;;11.23;;
19221;SDS011;9745;50.828;4.378;2024-03-22T10:56:25;18.33;;;12.63;;
19221;SDS011;9745;50.828;4.378;2024-03-22T10:58:51;20.80;;;11.30;;
19221;SDS011;9745;50.828;4.378;2024-03-22T11:01:24;18.33;;;11.40;;
19221;SDS011;9745;50.828;4.378;2024-03-22T11:03:51;21.83;;;11.57;;
19221;SDS011;9745;50.828;4.378;2024-03-22T11:06:28;21.00;;;11.63;;
19221;SDS011;9745;50.828;4.378;2024-03-22T11:08:54;14.93;;;10.53;;
19221;SDS011;9745;50.828;4.378;2024-03-22T11:11:20;18.87;;;11.13;;
19221;SDS011;9745;50.828;4.378;2024-03-22T11:13:48;16.10;;;11.00;;
19221;SDS011;9745;50.828;4.378;2024-03-22T11:16:14;22.10;;;11.50;;
19221;SDS011;9745;50.828;4.378;2024-03-22T11:18:40;14.13;;;9.90;;
19221;SDS011;9745;50.828;4.378;2024-03-22T11:21:06;16.03;;;10.30;;
19221;SDS011;9745;50.828;4.378;2024-03-22T11:23:34;16.87;;;9.90;;
19221;SDS011;9745;50.828;4.378;2024-03-22T11:26:01;17.03;;;9.73;;
19221;SDS011;9745;50.828;4.378;2024-03-22T11:28:27;16.23;;;9.37;;
19221;SDS011;9745;50.828;4.378;2024-03-22T11:30:53;13.13;;;10.00;;
19221;SDS011;9745;50.828;4.378;2024-03-22T11:33:19;15.20;;;9.70;;
19221;SDS011;9745;50.828;4.378;2024-03-22T11:35:45;15.00;;;10.37;;
19221;SDS011;9745;50.828;4.378;2024-03-22T11:38:11;15.30;;;10.00;;
19221;SDS011;9745;50.828;4.378;2024-03-22T11:40:37;15.53;;;9.70;;
19221;SDS011;9745;50.828;4.378;2024-03-22T11:43:03;15.50;;;9.90;;
19221;SDS011;9745;50.828;4.378;2024-03-22T11:45:30;17.07;;;9.70;;
19221;SDS011;9745;50.828;4.378;2024-03-22T11:48:01;17.03;;;10.17;;
19221;SDS011;9745;50.828;4.378;2024-03-22T11:50:27;16.83;;;9.80;;
19221;SDS011;9745;50.828;4.378;2024-03-22T11:52:53;16.03;;;10.10;;
19221;SDS011;9745;50.828;4.378;2024-03-22T11:55:19;14.13;;;9.60;;
19221;SDS011;9745;50.828;4.378;2024-03-22T11:57:48;17.53;;;9.87;;
19221;SDS011;9745;50.828;4.378;2024-03-22T12:00:15;18.33;;;11.07;;
19221;SDS011;9745;50.828;4.378;2024-03-22T12:02:41;15.20;;;9.83;;
19221;SDS011;9745;50.828;4.378;2024-03-22T12:05:07;14.60;;;10.47;;
19221;SDS011;9745;50.828;4.378;2024-03-22T12:07:33;17.97;;;10.03;;
19221;SDS011;9745;50.828;4.378;2024-03-22T12:09:59;16.30;;;10.60;;
19221;SDS011;9745;50.828;4.378;2024-03-22T12:12:25;17.93;;;10.53;;
19221;SDS011;9745;50.828;4.378;2024-03-22T12:14:52;16.17;;;9.90;;
19221;SDS011;9745;50.828;4.378;2024-03-22T12:17:18;17.77;;;10.73;;
19221;SDS011;9745;50.828;4.378;2024-03-22T12:19:44;17.20;;;9.67;;
19221;SDS011;9745;50.828;4.378;2024-03-22T12:22:10;17.00;;;11.93;;
19221;SDS011;9745;50.828;4.378;2024-03-22T12:24:36;19.07;;;10.87;;
19221;SDS011;9745;50.828;4.378;2024-03-22T12:27:02;18.47;;;10.67;;
19221;SDS011;9745;50.828;4.378;2024-03-22T12:29:28;20.23;;;10.80;;
19221;SDS011;9745;50.828;4.378;2024-03-22T12:31:54;20.30;;;10.10;;
19221;SDS011;9745;50.828;4.378;2024-03-22T12:34:21;16.60;;;10.70;;
19221;SDS011;9745;50.828;4.378;2024-03-22T12:36:47;15.37;;;10.10;;
19221;SDS011;9745;50.828;4.378;2024-03-22T12:39:13;17.37;;;10.03;;
19221;SDS011;9745;50.828;4.378;2024-03-22T12:41:39;19.37;;;11.13;;
19221;SDS011;9745;50.828;4.378;2024-03-22T12:44:06;14.63;;;8.97;;
19221;SDS011;9745;50.828;4.378;2024-03-22T12:46:32;13.23;;;7.40;;
19221;SDS011;9745;50.828;4.378;2024-03-22T12:48:58;15.63;;;8.03;;
19221;SDS011;9745;50.828;4.378;2024-03-22T12:51:24;15.70;;;8.27;;
19221;SDS011;9745;50.828;4.378;2024-03-22T12:53:50;11.77;;;7.47;;
19221;SDS011;9745;50.828;4.378;2024-03-22T12:56:17;14.93;;;7.13;;
19221;SDS011;9745;50.828;4.378;2024-03-22T12:58:43;14.67;;;8.10;;
19221;SDS011;9745;50.828;4.378;2024-03-22T13:01:09;17.50;;;8.77;;
19221;SDS011;9745;50.828;4.378;2024-03-22T13:03:36;15.53;;;8.47;;
19221;SDS011;9745;50.828;4.378;2024-03-22T13:06:02;17.63;;;8.03;;
19221;SDS011;9745;50.828;4.378;2024-03-22T13:08:30;17.43;;;8.07;;
19221;SDS011;9745;50.828;4.378;2024-03-22T13:10:56;16.23;;;8.33;;
19221;SDS011;9745;50.828;4.378;2024-03-22T13:13:22;15.50;;;9.17;;
19221;SDS011;9745;50.828;4.378;2024-03-22T13:15:48;14.17;;;8.30;;
19221;SDS011;9745;50.828;4.378;2024-03-22T13:18:14;14.37;;;7.97;;
19221;SDS011;9745;50.828;4.378;2024-03-22T13:20:40;20.43;;;8.33;;
19221;SDS011;9745;50.828;4.378;2024-03-22T13:23:06;15.77;;;8.20;;
19221;SDS011;9745;50.828;4.378;2024-03-22T13:25:34;15.47;;;8.33;;
19221;SDS011;9745;50.828;4.378;2024-03-22T13:28:04;16.63;;;7.57;;
19221;SDS011;9745;50.828;4.378;2024-03-22T13:30:30;19.83;;;7.83;;
19221;SDS011;9745;50.828;4.378;2024-03-22T13:32:56;16.97;;;7.87;;
19221;SDS011;9745;50.828;4.378;2024-03-22T13:35:22;14.93;;;8.13;;
19221;SDS011;9745;50.828;4.378;2024-03-22T13:37:48;16.17;;;8.90;;
19221;SDS011;9745;50.828;4.378;2024-03-22T13:40:14;24.90;;;15.30;;
19221;SDS011;9745;50.828;4.378;2024-03-22T13:42:40;18.30;;;7.77;;
19221;SDS011;9745;50.828;4.378;2024-03-22T13:45:06;21.00;;;10.77;;
19221;SDS011;9745;50.828;4.378;2024-03-22T13:47:33;18.50;;;9.17;;
19221;SDS011;9745;50.828;4.378;2024-03-22T13:50:02;17.03;;;8.10;;
19221;SDS011;9745;50.828;4.378;2024-03-22T13:52:28;17.97;;;8.63;;
19221;SDS011;9745;50.828;4.378;2024-03-22T13:54:55;14.37;;;9.50;;
19221;SDS011;9745;50.828;4.378;2024-03-22T13:57:21;23.23;;;10.07;;
19221;SDS011;9745;50.828;4.378;2024-03-22T13:59:49;20.07;;;9.90;;
19221;SDS011;9745;50.828;4.378;2024-03-22T14:02:15;16.47;;;9.33;;
19221;SDS011;9745;50.828;4.378;2024-03-22T14:04:41;22.07;;;9.70;;
19221;SDS011;9745;50.828;4.378;2024-03-22T14:07:07;18.20;;;8.70;;
19221;SDS011;9745;50.828;4.378;2024-03-22T14:09:34;17.10;;;8.50;;
19221;SDS011;9745;50.828;4.378;2024-03-22T14:12:01;22.17;;;9.63;;
19221;SDS011;9745;50.828;4.378;2024-03-22T14:14:27;17.70;;;8.83;;
19221;SDS011;9745;50.828;4.378;2024-03-22T14:16:54;17.93;;;8.93;;
19221;SDS011;9745;50.828;4.378;2024-03-22T14:19:20;18.50;;;8.10;;
19221;SDS011;9745;50.828;4.378;2024-03-22T14:21:46;11.63;;;6.53;;
19221;SDS011;9745;50.828;4.378;2024-03-22T14:24:13;13.30;;;7.23;;
19221;SDS011;9745;50.828;4.378;2024-03-22T14:26:39;17.17;;;7.20;;
19221;SDS011;9745;50.828;4.378;2024-03-22T14:29:08;13.00;;;6.77;;